Time;durP1;ratioP1;P1;durP2;ratioP2;P2;SDS_P1;SDS_P2;PMS_P1;PMS_P2;Temp;Humidity;BMP_temperature;BMP_pressure;BME280_temperature;BME280_humidity;BME280_pressure;Samples;Min_cycle;Max_cycle;Signal;HPM_P1;HPM_P2
2022/07/30 00:00:08;;;;;;;;;;;30.90;42.90;;;;;;686172;28;776;-87
2022/07/30 00:00:29;;;;;;;;;;;30.90;42.90;;;;;;687751;28;1100;-87
2022/07/30 00:00:50;;;;;;;;;;;30.90;42.90;;;;;;685595;28;1111;-88
2022/07/30 00:01:10;;;;;;;;;;;30.90;42.90;;;;;;685816;28;839;-87
2022/07/30 00:01:33;;;;;;;;;;;31.00;42.90;;;;;;685862;28;1418;-88
2022/07/30 00:01:53;;;;;;;;;;;31.00;43.00;;;;;;685866;28;831;-87
2022/07/30 00:02:15;;;;;;;;;;;30.90;42.90;;;;;;685842;28;834;-87
2022/07/30 00:02:36;;;;;;;;;;;30.90;42.90;;;;;;685742;28;875;-86
2022/07/30 00:02:56;;;;;;;;;;;31.00;42.90;;;;;;685831;28;807;-87
2022/07/30 00:03:17;;;;;;;;;;;30.90;42.90;;;;;;685786;28;903;-86
2022/07/30 00:03:37;;;;;;;;;;;30.90;42.90;;;;;;683116;28;1332;-87
2022/07/30 00:03:58;;;;;;;;;;;30.90;42.90;;;;;;683185;29;835;-86
2022/07/30 00:04:19;;;;;;;;;;;30.90;42.80;;;;;;683493;28;792;-87
2022/07/30 00:04:39;;;;;;;;;;;30.90;42.80;;;;;;685849;28;768;-87
2022/07/30 00:05:00;;;;;;;;;;;30.90;42.90;;;;;;685844;28;800;-87
2022/07/30 00:05:21;;;;;;;;;;;30.90;42.70;;;;;;686258;28;799;-86
2022/07/30 00:05:42;;;;;;;;;;;30.90;42.80;;;;;;688845;28;822;-87
2022/07/30 00:06:02;;;;;;;;;;;30.90;42.80;;;;;;685714;28;1280;-86
2022/07/30 00:06:23;;;;;;;;;;;30.90;42.80;;;;;;685713;28;1379;-87
2022/07/30 00:06:43;;;;;;;;;;;30.90;42.90;;;;;;685424;28;960;-86
2022/07/30 00:07:04;;;;;;;;;;;30.90;42.90;;;;;;685741;28;2022;-86
2022/07/30 00:07:25;;;;;;;;;;;30.90;42.90;;;;;;685753;28;874;-87
2022/07/30 00:07:46;;;;;;;;;;;30.90;43.00;;;;;;686011;28;1037;-87
2022/07/30 00:08:06;;;;;;;;;;;30.90;43.00;;;;;;688249;28;823;-88
2022/07/30 00:08:27;;;;;;;;;;;30.90;43.00;;;;;;683088;29;1349;-88
2022/07/30 00:08:47;;;;;;;;;;;30.90;43.10;;;;;;683212;29;768;-88
2022/07/30 00:09:08;;;;;;;;;;;30.90;43.00;;;;;;683551;28;965;-87
2022/07/30 00:09:29;;;;;;;;;;;30.90;43.00;;;;;;685774;28;1495;-86
2022/07/30 00:09:49;;;;;;;;;;;30.90;42.90;;;;;;685756;28;1439;-88
2022/07/30 00:10:10;;;;;;;;;;;30.90;43.00;;;;;;685754;28;1383;-87
2022/07/30 00:10:30;;;;;;;;;;;30.90;43.00;;;;;;685723;28;1202;-87
2022/07/30 00:10:51;;;;;;;;;;;30.90;43.00;;;;;;685841;28;1371;-86
2022/07/30 00:11:11;;;;;;;;;;;30.90;43.10;;;;;;685593;28;891;-87
2022/07/30 00:11:32;;;;;;;;;;;30.90;43.00;;;;;;683374;28;906;-86
2022/07/30 00:11:52;;;;;;;;;;;30.90;43.00;;;;;;685840;28;1326;-85
2022/07/30 00:12:13;;;;;;;;;;;30.90;42.90;;;;;;683075;29;851;-86
2022/07/30 00:12:34;;;;;;;;;;;30.90;43.00;;;;;;683449;28;835;-86
2022/07/30 00:12:56;;;;;;;;;;;30.90;43.00;;;;;;685649;28;1424;-86
2022/07/30 00:13:17;;;;;;;;;;;30.90;43.10;;;;;;683054;29;1231;-87
2022/07/30 00:13:37;;;;;;;;;;;30.90;43.00;;;;;;685833;28;1320;-86
2022/07/30 00:13:58;;;;;;;;;;;30.90;43.00;;;;;;685793;28;1338;-86
2022/07/30 00:14:19;;;;;;;;;;;30.90;43.00;;;;;;685694;28;1503;-86
2022/07/30 00:14:39;;;;;;;;;;;30.90;43.00;;;;;;686281;28;1280;-88
2022/07/30 00:15:00;;;;;;;;;;;30.90;43.00;;;;;;687736;28;870;-87
2022/07/30 00:15:20;;;;;;;;;;;30.90;43.00;;;;;;688182;28;1155;-86
2022/07/30 00:15:41;;;;;;;;;;;30.90;44.10;;;;;;685809;28;812;-87
2022/07/30 00:16:02;;;;;;;;;;;30.90;43.00;;;;;;685554;28;823;-87
2022/07/30 00:16:22;;;;;;;;;;;30.90;43.10;;;;;;685798;28;1269;-86
2022/07/30 00:16:43;;;;;;;;;;;30.90;43.10;;;;;;683287;28;1268;-87
2022/07/30 00:17:03;;;;;;;;;;;30.90;43.00;;;;;;685883;28;772;-86
2022/07/30 00:17:24;;;;;;;;;;;30.90;43.00;;;;;;685752;28;846;-86
2022/07/30 00:17:45;;;;;;;;;;;30.90;43.10;;;;;;685850;28;834;-84
2022/07/30 00:18:05;;;;;;;;;;;33.20;44.70;;;;;;685697;28;748;-86
2022/07/30 00:18:26;;;;;;;;;;;30.90;43.10;;;;;;683316;28;1208;-86
2022/07/30 00:18:46;;;;;;;;;;;30.90;43.10;;;;;;685794;28;1358;-85
2022/07/30 00:19:07;;;;;;;;;;;30.90;43.10;;;;;;683372;28;1419;-87
2022/07/30 00:19:28;;;;;;;;;;;30.90;43.10;;;;;;685274;28;1374;-86
2022/07/30 00:19:48;;;;;;;;;;;30.90;43.10;;;;;;685894;28;792;-86
2022/07/30 00:20:09;;;;;;;;;;;30.90;43.10;;;;;;685811;28;891;-86
2022/07/30 00:20:29;;;;;;;;;;;30.80;43.10;;;;;;685675;28;1364;-86
2022/07/30 00:20:50;;;;;;;;;;;30.90;43.10;;;;;;688348;28;1445;-86
2022/07/30 00:21:11;;;;;;;;;;;30.80;43.10;;;;;;688096;28;1306;-86
2022/07/30 00:21:31;;;;;;;;;;;30.90;43.20;;;;;;685941;28;820;-85
2022/07/30 00:21:53;;;;;;;;;;;30.90;43.10;;;;;;685655;28;1338;-86
2022/07/30 00:22:14;;;;;;;;;;;30.80;43.10;;;;;;687994;28;1094;-86
2022/07/30 00:22:34;;;;;;;;;;;30.80;43.10;;;;;;685756;28;827;-87
2022/07/30 00:22:55;;;;;;;;;;;30.80;43.10;;;;;;685834;28;911;-85
2022/07/30 00:23:15;;;;;;;;;;;30.80;43.10;;;;;;683110;29;1408;-87
2022/07/30 00:23:36;;;;;;;;;;;30.80;43.10;;;;;;680489;29;1498;-85
2022/07/30 00:23:57;;;;;;;;;;;30.80;43.10;;;;;;680496;29;863;-85
2022/07/30 00:24:17;;;;;;;;;;;30.90;43.20;;;;;;680759;29;879;-87
2022/07/30 00:24:38;;;;;;;;;;;30.80;43.10;;;;;;683065;29;859;-86
2022/07/30 00:24:58;;;;;;;;;;;30.80;43.10;;;;;;683372;28;1504;-85
2022/07/30 00:25:19;;;;;;;;;;;30.80;43.10;;;;;;685443;28;1347;-84
2022/07/30 00:25:39;;;;;;;;;;;30.80;44.10;;;;;;685814;28;1234;-85
2022/07/30 00:26:00;;;;;;;;;;;30.80;44.20;;;;;;685812;28;780;-86
2022/07/30 00:26:20;;;;;;;;;;;30.80;43.10;;;;;;685398;28;1575;-86
2022/07/30 00:26:41;;;;;;;;;;;30.80;44.10;;;;;;686076;28;850;-85
2022/07/30 00:27:02;;;;;;;;;;;30.80;43.10;;;;;;688463;28;1973;-86
2022/07/30 00:27:22;;;;;;;;;;;30.80;43.10;;;;;;688346;28;1417;-86
2022/07/30 00:27:44;;;;;;;;;;;30.80;43.10;;;;;;688440;28;894;-86
2022/07/30 00:28:04;;;;;;;;;;;30.80;43.10;;;;;;688070;28;1217;-85
2022/07/30 00:28:25;;;;;;;;;;;30.80;43.20;;;;;;683047;28;1123;-85
2022/07/30 00:28:45;;;;;;;;;;;30.80;43.10;;;;;;682980;29;1359;-85
2022/07/30 00:29:06;;;;;;;;;;;30.80;43.10;;;;;;683020;28;1312;-86
2022/07/30 00:29:27;;;;;;;;;;;30.80;43.10;;;;;;682441;29;1393;-87
2022/07/30 00:29:48;;;;;;;;;;;30.80;43.10;;;;;;682944;29;1248;-87
2022/07/30 00:30:08;;;;;;;;;;;30.80;43.20;;;;;;683101;29;1378;-86
2022/07/30 00:30:29;;;;;;;;;;;30.80;43.10;;;;;;680410;29;1337;-84
2022/07/30 00:30:49;;;;;;;;;;;30.80;43.10;;;;;;680977;29;792;-86
2022/07/30 00:31:10;;;;;;;;;;;30.80;43.10;;;;;;683059;29;887;-87
2022/07/30 00:31:31;;;;;;;;;;;30.90;44.30;;;;;;683220;29;787;-85
2022/07/30 00:31:51;;;;;;;;;;;30.80;43.10;;;;;;683403;28;842;-86
2022/07/30 00:32:12;;;;;;;;;;;30.80;44.30;;;;;;686005;28;894;-85
2022/07/30 00:32:32;;;;;;;;;;;30.80;43.10;;;;;;685980;28;1117;-84
2022/07/30 00:32:53;;;;;;;;;;;30.80;43.10;;;;;;685805;28;851;-85
2022/07/30 00:33:13;;;;;;;;;;;30.80;43.10;;;;;;685785;28;779;-86
2022/07/30 00:33:34;;;;;;;;;;;30.80;43.10;;;;;;685806;28;981;-86
2022/07/30 00:33:54;;;;;;;;;;;30.80;43.10;;;;;;685715;28;862;-86
2022/07/30 00:34:16;;;;;;;;;;;30.80;43.30;;;;;;686028;28;807;-86
2022/07/30 00:34:36;;;;;;;;;;;30.80;43.20;;;;;;688522;28;882;-85
2022/07/30 00:34:57;;;;;;;;;;;30.80;43.20;;;;;;685830;28;804;-86
2022/07/30 00:35:17;;;;;;;;;;;30.80;43.10;;;;;;685841;28;922;-87
2022/07/30 00:35:38;;;;;;;;;;;30.80;43.20;;;;;;685757;28;1314;-87
2022/07/30 00:35:59;;;;;;;;;;;30.80;43.30;;;;;;683074;29;1367;-86
2022/07/30 00:36:19;;;;;;;;;;;30.80;43.20;;;;;;683110;29;1198;-86
2022/07/30 00:36:40;;;;;;;;;;;30.80;43.20;;;;;;683004;29;1222;-87
2022/07/30 00:37:00;;;;;;;;;;;30.80;43.20;;;;;;683059;29;891;-86
2022/07/30 00:37:21;;;;;;;;;;;30.80;43.20;;;;;;683424;28;891;-85
2022/07/30 00:37:43;;;;;;;;;;;30.80;43.20;;;;;;685645;28;1208;-87
2022/07/30 00:38:03;;;;;;;;;;;30.80;43.20;;;;;;683109;29;1206;-86
2022/07/30 00:38:24;;;;;;;;;;;30.80;43.20;;;;;;683223;29;764;-86
2022/07/30 00:38:44;;;;;;;;;;;30.80;43.20;;;;;;680370;29;1335;-87
2022/07/30 00:39:05;;;;;;;;;;;30.80;43.20;;;;;;680491;29;1198;-86
2022/07/30 00:39:28;;;;;;;;;;;30.80;43.20;;;;;;681105;29;903;-88
2022/07/30 00:39:49;;;;;;;;;;;30.80;43.20;;;;;;683975;28;1601;-86
2022/07/30 00:40:09;;;;;;;;;;;30.80;43.20;;;;;;687492;28;854;-86
2022/07/30 00:40:30;;;;;;;;;;;30.80;43.20;;;;;;687333;28;768;-85
2022/07/30 00:40:50;;;;;;;;;;;30.80;43.20;;;;;;688358;28;1259;-87
2022/07/30 00:41:11;;;;;;;;;;;30.80;43.30;;;;;;691291;28;874;-85
2022/07/30 00:41:32;;;;;;;;;;;30.80;43.30;;;;;;691116;28;1210;-87
2022/07/30 00:41:53;;;;;;;;;;;30.80;43.30;;;;;;691065;28;822;-87
2022/07/30 00:42:15;;;;;;;;;;;30.80;43.20;;;;;;688379;28;1204;-86
2022/07/30 00:42:36;;;;;;;;;;;30.80;43.20;;;;;;688191;28;858;-86
2022/07/30 00:42:57;;;;;;;;;;;30.80;43.20;;;;;;685763;28;1350;-85
2022/07/30 00:43:19;;;;;;;;;;;30.70;43.10;;;;;;685863;28;815;-86
2022/07/30 00:43:39;;;;;;;;;;;30.80;43.30;;;;;;683153;29;863;-86
2022/07/30 00:44:00;;;;;;;;;;;30.80;43.20;;;;;;683737;28;870;-86
2022/07/30 00:44:20;;;;;;;;;;;30.80;43.20;;;;;;685896;28;882;-87
2022/07/30 00:44:41;;;;;;;;;;;30.80;43.20;;;;;;683091;29;891;-86
2022/07/30 00:45:01;;;;;;;;;;;30.80;43.20;;;;;;683036;29;918;-86
2022/07/30 00:45:22;;;;;;;;;;;30.80;43.20;;;;;;683243;28;1491;-86
2022/07/30 00:45:43;;;;;;;;;;;30.70;43.10;;;;;;683095;29;1461;-86
2022/07/30 00:46:06;;;;;;;;;;;30.80;43.30;;;;;;683046;29;835;-86
2022/07/30 00:46:27;;;;;;;;;;;30.80;43.30;;;;;;683708;28;1307;-85
2022/07/30 00:46:47;;;;;;;;;;;30.80;43.20;;;;;;685681;28;1298;-87
2022/07/30 00:47:08;;;;;;;;;;;30.80;43.20;;;;;;685732;28;1968;-87
2022/07/30 00:47:28;;;;;;;;;;;30.80;43.20;;;;;;683654;28;1203;-87
2022/07/30 00:47:49;;;;;;;;;;;30.80;43.30;;;;;;685762;28;859;-86
2022/07/30 00:48:10;;;;;;;;;;;30.70;43.10;;;;;;685789;28;1258;-86
2022/07/30 00:48:30;;;;;;;;;;;30.70;43.10;;;;;;685789;28;824;-87
2022/07/30 00:48:51;;;;;;;;;;;30.80;43.10;;;;;;685774;28;871;-87
2022/07/30 00:49:11;;;;;;;;;;;30.80;43.10;;;;;;683197;28;911;-86
2022/07/30 00:49:32;;;;;;;;;;;30.80;43.20;;;;;;685975;28;1296;-86
2022/07/30 00:49:52;;;;;;;;;;;30.80;43.20;;;;;;685327;28;1267;-87
2022/07/30 00:50:14;;;;;;;;;;;30.70;43.10;;;;;;682793;29;894;-86
2022/07/30 00:50:34;;;;;;;;;;;30.70;43.10;;;;;;683223;29;843;-86
2022/07/30 00:50:55;;;;;;;;;;;30.70;43.20;;;;;;683513;28;773;-86
2022/07/30 00:51:16;;;;;;;;;;;30.80;43.20;;;;;;685813;28;879;-88
2022/07/30 00:51:36;;;;;;;;;;;30.70;43.10;;;;;;685735;28;791;-86
2022/07/30 00:51:57;;;;;;;;;;;30.70;43.10;;;;;;683426;28;1374;-86
2022/07/30 00:52:17;;;;;;;;;;;30.70;43.10;;;;;;685792;28;796;-87
2022/07/30 00:52:38;;;;;;;;;;;30.80;43.20;;;;;;685663;28;1417;-87
2022/07/30 00:52:59;;;;;;;;;;;30.80;43.10;;;;;;682999;29;1442;-86
2022/07/30 00:53:20;;;;;;;;;;;30.80;43.20;;;;;;683086;29;875;-85
2022/07/30 00:53:40;;;;;;;;;;;30.80;43.20;;;;;;683170;29;874;-86
2022/07/30 00:54:01;;;;;;;;;;;30.70;43.10;;;;;;683089;29;783;-86
2022/07/30 00:54:22;;;;;;;;;;;30.70;43.10;;;;;;683491;28;831;-86
2022/07/30 00:54:42;;;;;;;;;;;30.70;43.10;;;;;;685772;28;823;-87
2022/07/30 00:55:04;;;;;;;;;;;30.70;43.10;;;;;;686070;28;866;-87
2022/07/30 00:55:24;;;;;;;;;;;30.70;43.10;;;;;;688249;28;1249;-87
2022/07/30 00:55:45;;;;;;;;;;;30.70;43.20;;;;;;688396;28;886;-87
2022/07/30 00:56:05;;;;;;;;;;;30.70;43.10;;;;;;685961;28;1241;-86
2022/07/30 00:56:26;;;;;;;;;;;30.70;43.10;;;;;;685869;28;811;-86
2022/07/30 00:56:47;;;;;;;;;;;30.70;43.10;;;;;;683049;29;1486;-87
2022/07/30 00:57:08;;;;;;;;;;;30.70;43.10;;;;;;683097;29;796;-86
2022/07/30 00:57:28;;;;;;;;;;;30.70;43.10;;;;;;683408;28;1241;-86
2022/07/30 00:57:49;;;;;;;;;;;30.70;43.10;;;;;;683239;28;1530;-87
2022/07/30 00:58:09;;;;;;;;;;;30.70;43.10;;;;;;685732;28;811;-87
2022/07/30 00:58:30;;;;;;;;;;;30.70;43.10;;;;;;685762;28;875;-87
2022/07/30 00:58:51;;;;;;;;;;;30.70;43.10;;;;;;685377;28;942;-87
2022/07/30 00:59:11;;;;;;;;;;;30.70;44.20;;;;;;685740;28;1065;-87
2022/07/30 00:59:32;;;;;;;;;;;30.70;43.10;;;;;;685804;28;851;-87
2022/07/30 00:59:53;;;;;;;;;;;30.70;43.10;;;;;;685670;28;827;-87
2022/07/30 01:00:14;;;;;;;;;;;30.70;43.10;;;;;;685711;28;885;-86
2022/07/30 01:00:35;;;;;;;;;;;30.70;43.10;;;;;;686140;28;1311;-86
2022/07/30 01:00:55;;;;;;;;;;;30.60;43.00;;;;;;685641;28;1229;-86
2022/07/30 01:01:16;;;;;;;;;;;30.70;43.10;;;;;;685577;28;895;-87
2022/07/30 01:01:37;;;;;;;;;;;30.70;43.10;;;;;;685376;28;1221;-86
2022/07/30 01:02:00;;;;;;;;;;;30.70;43.10;;;;;;685649;28;1259;-86
2022/07/30 01:02:20;;;;;;;;;;;30.70;43.10;;;;;;685687;28;1326;-87
2022/07/30 01:02:41;;;;;;;;;;;30.70;43.10;;;;;;685606;28;1201;-86
2022/07/30 01:03:03;;;;;;;;;;;30.70;43.10;;;;;;682922;29;1284;-86
2022/07/30 01:03:24;;;;;;;;;;;30.70;43.10;;;;;;683104;29;851;-86
2022/07/30 01:03:44;;;;;;;;;;;30.70;44.20;;;;;;685617;28;1592;-86
2022/07/30 01:04:10;;;;;;;;;;;30.70;43.10;;;;;;685565;28;1376;-87
2022/07/30 01:04:30;;;;;;;;;;;30.70;43.10;;;;;;686987;28;1272;-86
2022/07/30 01:04:51;;;;;;;;;;;30.70;43.10;;;;;;688060;28;1496;-86
2022/07/30 01:05:12;;;;;;;;;;;30.70;43.10;;;;;;685699;28;1563;-87
2022/07/30 01:05:32;;;;;;;;;;;30.70;43.10;;;;;;685829;28;822;-87
2022/07/30 01:05:53;;;;;;;;;;;30.70;43.10;;;;;;682057;29;874;-88
2022/07/30 01:06:14;;;;;;;;;;;30.70;43.10;;;;;;677626;29;1362;-87
2022/07/30 01:06:34;;;;;;;;;;;30.70;43.10;;;;;;675435;29;872;-87
2022/07/30 01:06:55;;;;;;;;;;;30.70;43.10;;;;;;677798;29;1271;-87
2022/07/30 01:07:16;;;;;;;;;;;30.70;43.10;;;;;;677748;29;1907;-86
2022/07/30 01:07:36;;;;;;;;;;;30.70;43.10;;;;;;677979;29;1176;-87
2022/07/30 01:07:57;;;;;;;;;;;30.70;43.10;;;;;;680698;29;1029;-87
2022/07/30 01:08:18;;;;;;;;;;;30.70;43.10;;;;;;683254;28;1417;-86
2022/07/30 01:08:38;;;;;;;;;;;30.70;43.10;;;;;;682939;29;1094;-87
2022/07/30 01:08:59;;;;;;;;;;;30.70;43.10;;;;;;680329;29;1181;-87
2022/07/30 01:09:19;;;;;;;;;;;30.70;43.10;;;;;;680777;29;882;-87
2022/07/30 01:09:40;;;;;;;;;;;30.70;43.10;;;;;;682980;29;1362;-86
2022/07/30 01:10:01;;;;;;;;;;;30.70;43.10;;;;;;683065;29;1182;-86
2022/07/30 01:10:21;;;;;;;;;;;30.70;43.10;;;;;;683342;28;803;-86
2022/07/30 01:10:42;;;;;;;;;;;30.70;43.10;;;;;;683093;29;1221;-86
2022/07/30 01:11:03;;;;;;;;;;;30.70;43.10;;;;;;683015;28;1174;-87
2022/07/30 01:11:27;;;;;;;;;;;30.70;43.10;;;;;;683090;29;807;-86
2022/07/30 01:11:48;;;;;;;;;;;30.70;43.10;;;;;;683038;28;1241;-87
2022/07/30 01:12:09;;;;;;;;;;;30.60;43.00;;;;;;683120;29;1054;-87
2022/07/30 01:12:30;;;;;;;;;;;30.70;43.10;;;;;;684026;28;835;-87
2022/07/30 01:12:54;;;;;;;;;;;30.70;43.00;;;;;;683069;29;1401;-87
2022/07/30 01:13:14;;;;;;;;;;;30.70;43.00;;;;;;683082;29;815;-86
2022/07/30 01:13:35;;;;;;;;;;;30.70;43.10;;;;;;683951;28;889;-86
2022/07/30 01:13:55;;;;;;;;;;;30.70;43.10;;;;;;682970;29;1304;-86
2022/07/30 01:14:16;;;;;;;;;;;30.70;43.10;;;;;;683090;29;890;-87
2022/07/30 01:14:37;;;;;;;;;;;30.70;43.00;;;;;;683998;28;890;-87
2022/07/30 01:14:58;;;;;;;;;;;30.70;43.00;;;;;;685750;28;791;-87
2022/07/30 01:15:20;;;;;;;;;;;30.70;43.00;;;;;;685574;28;1354;-86
2022/07/30 01:15:41;;;;;;;;;;;30.70;43.00;;;;;;683238;28;1344;-86
2022/07/30 01:16:02;;;;;;;;;;;30.70;43.10;;;;;;682977;29;878;-87
2022/07/30 01:16:22;;;;;;;;;;;30.70;42.90;;;;;;682903;28;1245;-87
2022/07/30 01:16:43;;;;;;;;;;;30.70;42.90;;;;;;683082;28;878;-87
2022/07/30 01:17:04;;;;;;;;;;;30.70;43.00;;;;;;682334;29;1319;-87
2022/07/30 01:17:24;;;;;;;;;;;30.70;42.90;;;;;;678048;29;1426;-86
2022/07/30 01:17:47;;;;;;;;;;;30.70;42.90;;;;;;680466;29;902;-86
2022/07/30 01:18:08;;;;;;;;;;;30.70;42.90;;;;;;680886;29;879;-87
2022/07/30 01:19:47;;;;;;;;;;;30.70;42.90;;;;;;683096;29;791;-87
2022/07/30 01:19:57;;;;;;;;;;;30.60;42.90;;;;;;688712;28;653;-87
2022/07/30 01:20:22;;;;;;;;;;;30.60;43.90;;;;;;688346;28;1497;-86
2022/07/30 01:21:02;;;;;;;;;;;30.70;44.00;;;;;;685650;28;1229;-86
2022/07/30 01:21:29;;;;;;;;;;;30.60;43.90;;;;;;685317;28;1115;-87
2022/07/30 01:21:53;;;;;;;;;;;30.70;44.00;;;;;;685710;28;859;-87
2022/07/30 01:22:20;;;;;;;;;;;30.60;43.80;;;;;;683664;28;1226;-87
2022/07/30 01:23:00;;;;;;;;;;;30.60;43.90;;;;;;685358;28;1413;-87
2022/07/30 01:23:24;;;;;;;;;;;30.60;42.90;;;;;;685735;28;1423;-87
2022/07/30 01:23:45;;;;;;;;;;;30.60;43.90;;;;;;685612;28;1342;-86
2022/07/30 01:24:26;;;;;;;;;;;30.60;42.90;;;;;;684449;28;1370;-87
2022/07/30 01:24:54;;;;;;;;;;;30.60;42.90;;;;;;685252;28;1177;-87
2022/07/30 01:25:19;;;;;;;;;;;30.60;42.90;;;;;;685667;28;953;-86
2022/07/30 01:25:49;;;;;;;;;;;30.60;42.80;;;;;;685777;28;807;-87
2022/07/30 01:26:11;;;;;;;;;;;30.60;43.90;;;;;;688281;28;1332;-86
2022/07/30 01:26:32;;;;;;;;;;;30.60;43.80;;;;;;688273;28;1102;-87
2022/07/30 01:26:53;;;;;;;;;;;30.60;43.90;;;;;;688316;28;1152;-87
2022/07/30 01:27:15;;;;;;;;;;;30.60;42.90;;;;;;688333;28;1957;-86
2022/07/30 01:27:39;;;;;;;;;;;30.60;42.90;;;;;;688286;28;1295;-88
2022/07/30 01:27:59;;;;;;;;;;;30.60;42.70;;;;;;688459;28;810;-87
2022/07/30 01:28:22;;;;;;;;;;;30.70;42.90;;;;;;687539;28;854;-87
2022/07/30 01:28:53;;;;;;;;;;;30.70;42.70;;;;;;682985;29;847;-87
2022/07/30 01:29:14;;;;;;;;;;;30.70;42.60;;;;;;680304;29;1351;-88
2022/07/30 01:29:37;;;;;;;;;;;30.60;42.60;;;;;;682873;29;993;-86
2022/07/30 01:29:59;;;;;;;;;;;30.70;42.60;;;;;;683026;28;1335;-87
2022/07/30 01:30:22;;;;;;;;;;;30.70;42.60;;;;;;683088;29;811;-87
2022/07/30 01:30:44;;;;;;;;;;;30.70;42.60;;;;;;686295;28;780;-87
2022/07/30 01:31:05;;;;;;;;;;;30.70;42.60;;;;;;685639;28;1347;-87
2022/07/30 01:31:27;;;;;;;;;;;30.70;42.60;;;;;;682817;29;1156;-87
2022/07/30 01:31:48;;;;;;;;;;;30.60;42.50;;;;;;683066;29;796;-87
2022/07/30 01:32:09;;;;;;;;;;;30.70;43.60;;;;;;683032;29;1335;-87
2022/07/30 01:32:32;;;;;;;;;;;30.70;44.80;;;;;;683038;29;899;-87
2022/07/30 01:32:54;;;;;;;;;;;30.70;42.60;;;;;;683989;28;784;-87
2022/07/30 01:33:15;;;;;;;;;;;30.70;42.60;;;;;;686760;28;910;-87
2022/07/30 01:33:39;;;;;;;;;;;30.70;43.50;;;;;;688351;28;1210;-86
2022/07/30 01:34:00;;;;;;;;;;;30.70;43.50;;;;;;688281;28;859;-88
2022/07/30 01:34:21;;;;;;;;;;;30.70;42.60;;;;;;688416;28;788;-87
2022/07/30 01:34:43;;;;;;;;;;;30.70;42.50;;;;;;688269;28;1319;-87
2022/07/30 01:35:05;;;;;;;;;;;30.70;42.50;;;;;;688386;28;795;-87
2022/07/30 01:35:27;;;;;;;;;;;30.70;42.50;;;;;;687071;28;1180;-87
2022/07/30 01:35:49;;;;;;;;;;;30.70;42.50;;;;;;682932;29;1186;-87
2022/07/30 01:36:13;;;;;;;;;;;30.70;43.40;;;;;;683087;29;827;-87
2022/07/30 01:36:34;;;;;;;;;;;30.70;43.50;;;;;;683067;29;835;-87
2022/07/30 01:36:55;;;;;;;;;;;30.70;42.60;;;;;;683021;29;891;-87
2022/07/30 01:37:16;;;;;;;;;;;30.70;43.50;;;;;;684292;28;925;-87
2022/07/30 01:37:38;;;;;;;;;;;30.70;42.50;;;;;;686996;28;890;-87
2022/07/30 01:37:59;;;;;;;;;;;30.70;42.50;;;;;;688587;28;803;-88
2022/07/30 01:38:21;;;;;;;;;;;30.70;42.50;;;;;;688182;28;1362;-88
2022/07/30 01:38:43;;;;;;;;;;;30.70;42.50;;;;;;688326;28;898;-88
2022/07/30 01:39:04;;;;;;;;;;;30.70;42.50;;;;;;688438;28;842;-87
2022/07/30 01:39:25;;;;;;;;;;;30.70;42.40;;;;;;685657;28;1358;-87
2022/07/30 01:39:47;;;;;;;;;;;30.70;42.40;;;;;;685732;28;721;-87
2022/07/30 01:40:07;;;;;;;;;;;30.70;42.40;;;;;;684910;28;1344;-87
2022/07/30 01:40:29;;;;;;;;;;;30.70;42.40;;;;;;685539;28;1261;-87
2022/07/30 01:40:52;;;;;;;;;;;30.70;42.40;;;;;;685260;28;903;-87
2022/07/30 01:41:13;;;;;;;;;;;30.70;42.40;;;;;;684441;28;862;-87
2022/07/30 01:41:34;;;;;;;;;;;30.70;42.40;;;;;;686320;28;791;-86
2022/07/30 01:41:55;;;;;;;;;;;30.70;42.40;;;;;;686968;28;796;-88
2022/07/30 01:42:17;;;;;;;;;;;30.70;42.40;;;;;;688782;28;1153;-87
2022/07/30 01:42:38;;;;;;;;;;;30.70;42.40;;;;;;689118;28;795;-87
2022/07/30 01:43:01;;;;;;;;;;;30.70;43.40;;;;;;689113;28;850;-88
2022/07/30 01:43:22;;;;;;;;;;;30.80;43.40;;;;;;689142;28;811;-88
2022/07/30 01:43:44;;;;;;;;;;;30.70;42.40;;;;;;688863;28;1343;-88
2022/07/30 01:44:05;;;;;;;;;;;30.80;43.40;;;;;;686161;28;1195;-88
2022/07/30 01:44:26;;;;;;;;;;;30.70;42.30;;;;;;686241;28;1322;-88
2022/07/30 01:44:47;;;;;;;;;;;30.70;43.30;;;;;;686295;28;799;-88
2022/07/30 01:45:09;;;;;;;;;;;30.70;42.30;;;;;;688933;28;1532;-87
2022/07/30 01:45:30;;;;;;;;;;;30.70;42.30;;;;;;688191;28;1167;-87
2022/07/30 01:45:51;;;;;;;;;;;30.70;42.30;;;;;;686349;28;780;-87
2022/07/30 01:46:13;;;;;;;;;;;30.70;42.30;;;;;;688251;28;780;-87
2022/07/30 01:46:34;;;;;;;;;;;30.70;42.30;;;;;;687981;28;1317;-86
2022/07/30 01:46:55;;;;;;;;;;;30.70;42.30;;;;;;687854;28;1404;-87
2022/07/30 01:47:17;;;;;;;;;;;30.70;42.20;;;;;;687810;28;1886;-86
2022/07/30 01:47:38;;;;;;;;;;;30.70;42.20;;;;;;685554;29;1218;-86
2022/07/30 01:47:59;;;;;;;;;;;30.70;42.20;;;;;;685495;29;1014;-86
2022/07/30 01:48:22;;;;;;;;;;;30.70;42.20;;;;;;684556;29;1052;-86
2022/07/30 01:48:42;;;;;;;;;;;30.70;42.20;;;;;;685365;28;795;-88
2022/07/30 01:49:03;;;;;;;;;;;30.70;42.20;;;;;;686891;28;812;-88
2022/07/30 01:49:25;;;;;;;;;;;30.70;42.20;;;;;;687009;28;914;-87
2022/07/30 01:49:48;;;;;;;;;;;30.70;42.20;;;;;;689064;28;838;-88
2022/07/30 01:50:12;;;;;;;;;;;30.70;42.20;;;;;;688587;28;1402;-87
2022/07/30 01:50:33;;;;;;;;;;;30.70;43.20;;;;;;689021;28;906;-88
2022/07/30 01:50:55;;;;;;;;;;;30.70;42.20;;;;;;689813;28;1268;-88
2022/07/30 01:51:16;;;;;;;;;;;30.70;42.20;;;;;;689618;28;803;-87
2022/07/30 01:51:38;;;;;;;;;;;30.70;42.10;;;;;;686117;28;1224;-88
2022/07/30 01:51:59;;;;;;;;;;;30.70;42.20;;;;;;684913;28;1276;-87
2022/07/30 01:52:20;;;;;;;;;;;30.80;42.30;;;;;;683594;29;800;-87
2022/07/30 01:52:42;;;;;;;;;;;30.80;43.20;;;;;;683568;29;950;-87
2022/07/30 01:53:03;;;;;;;;;;;30.80;43.10;;;;;;686364;28;1185;-88
2022/07/30 01:53:25;;;;;;;;;;;30.80;42.30;;;;;;686688;28;1272;-88
2022/07/30 01:53:48;;;;;;;;;;;30.70;42.10;;;;;;687879;28;827;-87
2022/07/30 01:54:09;;;;;;;;;;;30.70;42.10;;;;;;686852;28;970;-88
2022/07/30 01:54:32;;;;;;;;;;;30.70;42.10;;;;;;686177;28;1166;-88
2022/07/30 01:54:54;;;;;;;;;;;30.80;43.20;;;;;;686296;28;1255;-88
2022/07/30 01:55:17;;;;;;;;;;;30.80;43.20;;;;;;686343;28;874;-87
2022/07/30 01:55:39;;;;;;;;;;;30.70;42.10;;;;;;683682;29;1231;-87
2022/07/30 01:56:00;;;;;;;;;;;30.80;42.10;;;;;;680971;29;1296;-87
2022/07/30 01:56:23;;;;;;;;;;;30.80;42.20;;;;;;678397;29;1227;-88
2022/07/30 01:56:46;;;;;;;;;;;30.80;42.20;;;;;;679551;29;1397;-87
2022/07/30 01:57:07;;;;;;;;;;;30.80;42.20;;;;;;680991;29;808;-87
2022/07/30 01:57:28;;;;;;;;;;;30.80;42.20;;;;;;682451;29;859;-88
2022/07/30 01:57:49;;;;;;;;;;;30.80;42.20;;;;;;684876;28;978;-87
2022/07/30 01:58:11;;;;;;;;;;;30.80;42.20;;;;;;683630;29;1329;-88
2022/07/30 01:58:34;;;;;;;;;;;30.70;42.00;;;;;;684548;28;859;-87
2022/07/30 01:58:56;;;;;;;;;;;30.70;42.10;;;;;;683242;29;1214;-87
2022/07/30 01:59:18;;;;;;;;;;;30.70;42.10;;;;;;683474;29;1362;-87
2022/07/30 01:59:39;;;;;;;;;;;30.80;43.20;;;;;;683446;29;1496;-87
2022/07/30 02:00:02;;;;;;;;;;;30.80;43.30;;;;;;684770;28;890;-87
2022/07/30 02:00:23;;;;;;;;;;;30.80;43.20;;;;;;686121;28;1324;-87
2022/07/30 02:00:44;;;;;;;;;;;30.70;42.10;;;;;;683385;28;1381;-88
2022/07/30 02:01:06;;;;;;;;;;;30.80;42.20;;;;;;683518;29;859;-88
2022/07/30 02:01:26;;;;;;;;;;;30.80;42.30;;;;;;683294;29;903;-89
2022/07/30 02:01:47;;;;;;;;;;;30.70;42.10;;;;;;683403;29;1465;-88
2022/07/30 02:02:08;;;;;;;;;;;30.70;42.10;;;;;;683043;29;737;-87
2022/07/30 02:02:28;;;;;;;;;;;30.80;42.20;;;;;;678679;29;1334;-89
2022/07/30 02:02:49;;;;;;;;;;;30.70;42.10;;;;;;678177;29;1217;-88
2022/07/30 02:03:10;;;;;;;;;;;30.70;42.10;;;;;;678103;29;1221;-87
2022/07/30 02:03:31;;;;;;;;;;;30.70;42.00;;;;;;678619;29;772;-87
2022/07/30 02:03:52;;;;;;;;;;;30.70;42.00;;;;;;680872;29;1315;-87
2022/07/30 02:04:13;;;;;;;;;;;30.80;42.10;;;;;;678496;29;1210;-87
2022/07/30 02:04:33;;;;;;;;;;;30.80;42.10;;;;;;681193;29;1324;-87
2022/07/30 02:04:54;;;;;;;;;;;30.80;42.10;;;;;;683868;28;1292;-87
2022/07/30 02:05:14;;;;;;;;;;;30.70;42.10;;;;;;683316;29;1095;-87
2022/07/30 02:05:36;;;;;;;;;;;30.80;42.10;;;;;;680845;29;1346;-87
2022/07/30 02:05:58;;;;;;;;;;;30.80;42.10;;;;;;681181;29;840;-86
2022/07/30 02:06:20;;;;;;;;;;;30.80;42.00;;;;;;683497;29;799;-88
2022/07/30 02:06:45;;;;;;;;;;;30.80;42.10;;;;;;683471;29;891;-88
2022/07/30 02:07:11;;;;;;;;;;;30.80;42.10;;;;;;684351;28;1960;-87
2022/07/30 02:07:31;;;;;;;;;;;30.80;42.10;;;;;;686133;28;796;-87
2022/07/30 02:07:57;;;;;;;;;;;30.80;42.10;;;;;;688478;28;967;-86
2022/07/30 02:08:23;;;;;;;;;;;30.80;42.00;;;;;;688756;28;1170;-86
2022/07/30 02:08:47;;;;;;;;;;;30.80;42.10;;;;;;688839;28;815;-85
2022/07/30 02:09:08;;;;;;;;;;;30.80;42.10;;;;;;686049;28;815;-86
2022/07/30 02:09:37;;;;;;;;;;;30.80;42.10;;;;;;686223;28;756;-86
2022/07/30 02:10:00;;;;;;;;;;;30.80;42.10;;;;;;686133;28;1052;-87
2022/07/30 02:10:32;;;;;;;;;;;30.70;42.00;;;;;;685870;28;1209;-86
2022/07/30 02:10:56;;;;;;;;;;;30.80;43.10;;;;;;683837;28;1490;-86